sensor_id;sensor_type;location;lat;lon;timestamp;temperature;humidity
21563;DHT22;10942;47.894;11.424;2023-12-07T00:01:15;2.30;99.90
21563;DHT22;10942;47.894;11.424;2023-12-07T00:03:41;2.30;99.90
21563;DHT22;10942;47.894;11.424;2023-12-07T00:06:06;2.30;99.90
21563;DHT22;10942;47.894;11.424;2023-12-07T00:08:32;2.30;99.90
21563;DHT22;10942;47.894;11.424;2023-12-07T00:10:58;2.30;99.90
21563;DHT22;10942;47.894;11.424;2023-12-07T00:13:23;2.30;99.90
21563;DHT22;10942;47.894;11.424;2023-12-07T00:15:49;2.30;99.90
21563;DHT22;10942;47.894;11.424;2023-12-07T00:18:15;2.30;99.90
21563;DHT22;10942;47.894;11.424;2023-12-07T00:20:40;2.30;99.90
21563;DHT22;10942;47.894;11.424;2023-12-07T00:23:06;2.30;99.90
21563;DHT22;10942;47.894;11.424;2023-12-07T00:25:32;2.30;99.90
21563;DHT22;10942;47.894;11.424;2023-12-07T00:27:57;2.30;99.90
21563;DHT22;10942;47.894;11.424;2023-12-07T00:30:23;2.20;99.90
21563;DHT22;10942;47.894;11.424;2023-12-07T00:32:49;2.20;99.90
21563;DHT22;10942;47.894;11.424;2023-12-07T00:35:14;2.20;99.90
21563;DHT22;10942;47.894;11.424;2023-12-07T00:37:41;2.20;99.90
21563;DHT22;10942;47.894;11.424;2023-12-07T00:40:07;2.10;99.90
21563;DHT22;10942;47.894;11.424;2023-12-07T00:42:33;2.10;99.90
21563;DHT22;10942;47.894;11.424;2023-12-07T00:45:00;2.10;99.90
21563;DHT22;10942;47.894;11.424;2023-12-07T00:47:26;2.00;99.90
21563;DHT22;10942;47.894;11.424;2023-12-07T00:49:51;2.00;99.90
21563;DHT22;10942;47.894;11.424;2023-12-07T00:52:17;2.00;99.90
21563;DHT22;10942;47.894;11.424;2023-12-07T00:54:43;2.00;99.90
21563;DHT22;10942;47.894;11.424;2023-12-07T00:57:09;2.00;99.90
21563;DHT22;10942;47.894;11.424;2023-12-07T00:59:35;2.00;99.90
21563;DHT22;10942;47.894;11.424;2023-12-07T01:02:02;1.90;99.90
21563;DHT22;10942;47.894;11.424;2023-12-07T01:04:29;1.90;99.90
21563;DHT22;10942;47.894;11.424;2023-12-07T01:06:55;1.90;99.90
21563;DHT22;10942;47.894;11.424;2023-12-07T01:09:21;1.90;99.90
21563;DHT22;10942;47.894;11.424;2023-12-07T01:11:47;1.90;99.90
21563;DHT22;10942;47.894;11.424;2023-12-07T01:14:13;1.90;99.90
21563;DHT22;10942;47.894;11.424;2023-12-07T01:16:39;1.90;99.90
21563;DHT22;10942;47.894;11.424;2023-12-07T01:19:05;1.90;99.90
21563;DHT22;10942;47.894;11.424;2023-12-07T01:21:32;1.90;99.90
21563;DHT22;10942;47.894;11.424;2023-12-07T01:23:58;1.90;99.90
21563;DHT22;10942;47.894;11.424;2023-12-07T01:26:24;1.80;99.90
21563;DHT22;10942;47.894;11.424;2023-12-07T01:28:49;1.80;99.90
21563;DHT22;10942;47.894;11.424;2023-12-07T01:31:15;1.80;99.90
21563;DHT22;10942;47.894;11.424;2023-12-07T01:33:43;1.80;99.90
21563;DHT22;10942;47.894;11.424;2023-12-07T01:36:09;1.70;99.90
21563;DHT22;10942;47.894;11.424;2023-12-07T01:38:34;1.70;99.90
21563;DHT22;10942;47.894;11.424;2023-12-07T01:41:00;1.60;99.90
21563;DHT22;10942;47.894;11.424;2023-12-07T01:43:26;1.60;99.90
21563;DHT22;10942;47.894;11.424;2023-12-07T01:45:52;1.50;99.90
21563;DHT22;10942;47.894;11.424;2023-12-07T01:48:20;1.50;99.90
21563;DHT22;10942;47.894;11.424;2023-12-07T01:50:47;1.50;99.90
21563;DHT22;10942;47.894;11.424;2023-12-07T01:53:13;1.50;99.90
21563;DHT22;10942;47.894;11.424;2023-12-07T01:55:40;1.40;99.90
21563;DHT22;10942;47.894;11.424;2023-12-07T01:58:06;1.40;99.90
21563;DHT22;10942;47.894;11.424;2023-12-07T02:00:33;1.40;99.90
21563;DHT22;10942;47.894;11.424;2023-12-07T02:03:00;1.40;99.90
21563;DHT22;10942;47.894;11.424;2023-12-07T02:05:28;1.40;99.90
21563;DHT22;10942;47.894;11.424;2023-12-07T02:07:54;1.30;99.90
21563;DHT22;10942;47.894;11.424;2023-12-07T02:10:20;1.30;99.90
21563;DHT22;10942;47.894;11.424;2023-12-07T02:12:46;1.20;99.90
21563;DHT22;10942;47.894;11.424;2023-12-07T02:15:12;1.20;99.90
21563;DHT22;10942;47.894;11.424;2023-12-07T02:17:58;1.30;99.90
21563;DHT22;10942;47.894;11.424;2023-12-07T02:20:41;1.30;99.90
21563;DHT22;10942;47.894;11.424;2023-12-07T02:23:08;1.30;99.90
21563;DHT22;10942;47.894;11.424;2023-12-07T02:25:41;1.30;99.90
21563;DHT22;10942;47.894;11.424;2023-12-07T02:28:09;1.40;99.90
21563;DHT22;10942;47.894;11.424;2023-12-07T02:30:35;1.40;99.90
21563;DHT22;10942;47.894;11.424;2023-12-07T02:33:01;1.40;99.90
21563;DHT22;10942;47.894;11.424;2023-12-07T02:35:27;1.50;99.90
21563;DHT22;10942;47.894;11.424;2023-12-07T02:37:53;1.40;99.90
21563;DHT22;10942;47.894;11.424;2023-12-07T02:40:24;1.50;99.90
21563;DHT22;10942;47.894;11.424;2023-12-07T02:42:54;1.40;99.90
21563;DHT22;10942;47.894;11.424;2023-12-07T02:45:19;1.40;99.90
21563;DHT22;10942;47.894;11.424;2023-12-07T02:47:45;1.50;99.90
21563;DHT22;10942;47.894;11.424;2023-12-07T02:50:11;1.40;99.90
21563;DHT22;10942;47.894;11.424;2023-12-07T02:52:38;1.50;99.90
21563;DHT22;10942;47.894;11.424;2023-12-07T02:55:04;1.50;99.90
21563;DHT22;10942;47.894;11.424;2023-12-07T02:57:30;1.50;99.90
21563;DHT22;10942;47.894;11.424;2023-12-07T02:59:56;1.50;99.90
21563;DHT22;10942;47.894;11.424;2023-12-07T03:02:22;1.50;99.90
21563;DHT22;10942;47.894;11.424;2023-12-07T03:04:48;1.50;99.90
21563;DHT22;10942;47.894;11.424;2023-12-07T03:07:14;1.50;99.90
21563;DHT22;10942;47.894;11.424;2023-12-07T03:09:40;1.50;99.90
21563;DHT22;10942;47.894;11.424;2023-12-07T03:12:06;1.50;99.90
21563;DHT22;10942;47.894;11.424;2023-12-07T03:14:32;1.50;99.90
21563;DHT22;10942;47.894;11.424;2023-12-07T03:16:58;1.50;99.90
21563;DHT22;10942;47.894;11.424;2023-12-07T03:19:24;1.50;99.90
21563;DHT22;10942;47.894;11.424;2023-12-07T03:21:50;1.50;99.90
21563;DHT22;10942;47.894;11.424;2023-12-07T03:24:15;1.50;99.90
21563;DHT22;10942;47.894;11.424;2023-12-07T03:26:41;1.50;99.90
21563;DHT22;10942;47.894;11.424;2023-12-07T03:29:07;1.50;99.90
21563;DHT22;10942;47.894;11.424;2023-12-07T03:31:33;1.50;99.90
21563;DHT22;10942;47.894;11.424;2023-12-07T03:33:58;1.50;99.90
21563;DHT22;10942;47.894;11.424;2023-12-07T03:36:26;1.50;99.90
21563;DHT22;10942;47.894;11.424;2023-12-07T03:38:52;1.50;99.90
21563;DHT22;10942;47.894;11.424;2023-12-07T03:41:18;1.50;99.90
21563;DHT22;10942;47.894;11.424;2023-12-07T03:43:44;1.50;99.90
21563;DHT22;10942;47.894;11.424;2023-12-07T03:46:09;1.50;99.90
21563;DHT22;10942;47.894;11.424;2023-12-07T03:48:35;1.40;99.90
21563;DHT22;10942;47.894;11.424;2023-12-07T03:51:01;1.40;99.90
21563;DHT22;10942;47.894;11.424;2023-12-07T03:53:27;1.40;99.90
21563;DHT22;10942;47.894;11.424;2023-12-07T03:55:54;1.40;99.90
21563;DHT22;10942;47.894;11.424;2023-12-07T03:58:19;1.40;99.90
21563;DHT22;10942;47.894;11.424;2023-12-07T04:00:45;1.40;99.90
21563;DHT22;10942;47.894;11.424;2023-12-07T04:03:11;1.40;99.90
21563;DHT22;10942;47.894;11.424;2023-12-07T04:05:37;1.40;99.90
21563;DHT22;10942;47.894;11.424;2023-12-07T04:08:03;1.40;99.90
21563;DHT22;10942;47.894;11.424;2023-12-07T04:10:31;1.30;99.90
21563;DHT22;10942;47.894;11.424;2023-12-07T04:12:57;1.30;99.90
21563;DHT22;10942;47.894;11.424;2023-12-07T04:15:22;1.30;99.90
21563;DHT22;10942;47.894;11.424;2023-12-07T04:17:49;1.30;99.90
21563;DHT22;10942;47.894;11.424;2023-12-07T04:20:14;1.30;99.90
21563;DHT22;10942;47.894;11.424;2023-12-07T04:22:41;1.40;99.90
21563;DHT22;10942;47.894;11.424;2023-12-07T04:25:07;1.30;99.90
21563;DHT22;10942;47.894;11.424;2023-12-07T04:27:36;1.40;99.90
21563;DHT22;10942;47.894;11.424;2023-12-07T04:30:02;1.40;99.90
21563;DHT22;10942;47.894;11.424;2023-12-07T04:32:29;1.40;99.90
21563;DHT22;10942;47.894;11.424;2023-12-07T04:34:55;1.40;99.90
21563;DHT22;10942;47.894;11.424;2023-12-07T04:37:21;1.40;99.90
21563;DHT22;10942;47.894;11.424;2023-12-07T04:39:46;1.40;99.90
21563;DHT22;10942;47.894;11.424;2023-12-07T04:42:12;1.40;99.90
21563;DHT22;10942;47.894;11.424;2023-12-07T04:44:38;1.40;99.90
21563;DHT22;10942;47.894;11.424;2023-12-07T04:47:04;1.40;99.90
21563;DHT22;10942;47.894;11.424;2023-12-07T04:49:30;1.40;99.90
21563;DHT22;10942;47.894;11.424;2023-12-07T04:51:55;1.40;99.90
21563;DHT22;10942;47.894;11.424;2023-12-07T04:54:21;1.40;99.90
21563;DHT22;10942;47.894;11.424;2023-12-07T04:56:47;1.40;99.90
21563;DHT22;10942;47.894;11.424;2023-12-07T04:59:12;1.40;99.90
21563;DHT22;10942;47.894;11.424;2023-12-07T05:01:38;1.40;99.90
21563;DHT22;10942;47.894;11.424;2023-12-07T05:04:04;1.40;99.90
21563;DHT22;10942;47.894;11.424;2023-12-07T05:06:31;1.40;99.90
21563;DHT22;10942;47.894;11.424;2023-12-07T05:08:57;1.40;99.90
21563;DHT22;10942;47.894;11.424;2023-12-07T05:11:23;1.40;99.90
21563;DHT22;10942;47.894;11.424;2023-12-07T05:13:48;1.40;99.90
21563;DHT22;10942;47.894;11.424;2023-12-07T05:16:14;1.40;99.90
21563;DHT22;10942;47.894;11.424;2023-12-07T05:18:40;1.40;99.90
21563;DHT22;10942;47.894;11.424;2023-12-07T05:21:07;1.40;99.90
21563;DHT22;10942;47.894;11.424;2023-12-07T05:23:33;1.30;99.90
21563;DHT22;10942;47.894;11.424;2023-12-07T05:25:59;1.30;99.90
21563;DHT22;10942;47.894;11.424;2023-12-07T05:28:26;1.30;99.90
21563;DHT22;10942;47.894;11.424;2023-12-07T05:30:52;1.20;99.90
21563;DHT22;10942;47.894;11.424;2023-12-07T05:33:18;1.20;99.90
21563;DHT22;10942;47.894;11.424;2023-12-07T05:35:47;1.20;99.90
21563;DHT22;10942;47.894;11.424;2023-12-07T05:38:13;1.00;99.90
21563;DHT22;10942;47.894;11.424;2023-12-07T05:40:39;1.00;99.90
21563;DHT22;10942;47.894;11.424;2023-12-07T05:43:04;0.90;99.90
21563;DHT22;10942;47.894;11.424;2023-12-07T05:45:30;0.90;99.90
21563;DHT22;10942;47.894;11.424;2023-12-07T05:47:56;0.90;99.90
21563;DHT22;10942;47.894;11.424;2023-12-07T05:52:48;0.80;99.90
21563;DHT22;10942;47.894;11.424;2023-12-07T05:55:14;0.80;99.90
21563;DHT22;10942;47.894;11.424;2023-12-07T05:57:40;0.80;99.90
21563;DHT22;10942;47.894;11.424;2023-12-07T06:00:06;0.70;99.90
21563;DHT22;10942;47.894;11.424;2023-12-07T06:02:39;0.70;99.90
21563;DHT22;10942;47.894;11.424;2023-12-07T06:05:04;0.60;99.90
21563;DHT22;10942;47.894;11.424;2023-12-07T06:07:30;0.60;99.90
21563;DHT22;10942;47.894;11.424;2023-12-07T06:09:56;0.60;99.90
21563;DHT22;10942;47.894;11.424;2023-12-07T06:12:22;0.50;99.90
21563;DHT22;10942;47.894;11.424;2023-12-07T06:14:50;0.40;99.90
21563;DHT22;10942;47.894;11.424;2023-12-07T06:17:16;0.40;99.90
21563;DHT22;10942;47.894;11.424;2023-12-07T06:19:42;0.40;99.90
21563;DHT22;10942;47.894;11.424;2023-12-07T06:22:08;0.30;99.90
21563;DHT22;10942;47.894;11.424;2023-12-07T06:24:34;0.30;99.90
21563;DHT22;10942;47.894;11.424;2023-12-07T06:27:02;0.20;99.90
21563;DHT22;10942;47.894;11.424;2023-12-07T06:29:28;0.20;99.90
21563;DHT22;10942;47.894;11.424;2023-12-07T06:31:54;0.10;99.90
21563;DHT22;10942;47.894;11.424;2023-12-07T06:34:20;0.10;99.90
21563;DHT22;10942;47.894;11.424;2023-12-07T06:36:46;0.10;99.90
21563;DHT22;10942;47.894;11.424;2023-12-07T06:39:13;0.10;99.90
21563;DHT22;10942;47.894;11.424;2023-12-07T06:41:39;0.00;99.90
21563;DHT22;10942;47.894;11.424;2023-12-07T06:44:06;-0.10;99.90
21563;DHT22;10942;47.894;11.424;2023-12-07T06:46:32;-0.10;99.90
21563;DHT22;10942;47.894;11.424;2023-12-07T06:48:58;-0.10;99.90
21563;DHT22;10942;47.894;11.424;2023-12-07T06:51:23;-0.20;99.90
21563;DHT22;10942;47.894;11.424;2023-12-07T06:53:49;-0.20;99.90
21563;DHT22;10942;47.894;11.424;2023-12-07T06:56:15;-0.20;99.90
21563;DHT22;10942;47.894;11.424;2023-12-07T06:58:41;-0.30;99.90
21563;DHT22;10942;47.894;11.424;2023-12-07T07:01:06;-0.40;99.90
21563;DHT22;10942;47.894;11.424;2023-12-07T07:03:32;-0.40;99.90
21563;DHT22;10942;47.894;11.424;2023-12-07T07:05:58;-0.40;99.90
21563;DHT22;10942;47.894;11.424;2023-12-07T07:08:25;-0.40;99.90
21563;DHT22;10942;47.894;11.424;2023-12-07T07:10:50;-0.40;99.90
21563;DHT22;10942;47.894;11.424;2023-12-07T07:13:16;-0.40;99.90
21563;DHT22;10942;47.894;11.424;2023-12-07T07:15:44;-0.40;99.90
21563;DHT22;10942;47.894;11.424;2023-12-07T07:18:10;-0.40;99.90
21563;DHT22;10942;47.894;11.424;2023-12-07T07:20:36;-0.40;99.90
21563;DHT22;10942;47.894;11.424;2023-12-07T07:23:01;-0.40;99.90
21563;DHT22;10942;47.894;11.424;2023-12-07T07:25:27;-0.40;99.90
21563;DHT22;10942;47.894;11.424;2023-12-07T07:27:53;-0.40;99.90
21563;DHT22;10942;47.894;11.424;2023-12-07T07:30:20;-0.40;99.90
21563;DHT22;10942;47.894;11.424;2023-12-07T07:32:46;-0.40;99.90
21563;DHT22;10942;47.894;11.424;2023-12-07T07:35:12;-0.30;99.90
21563;DHT22;10942;47.894;11.424;2023-12-07T07:37:41;-0.30;99.90
21563;DHT22;10942;47.894;11.424;2023-12-07T07:40:08;-0.30;99.90
21563;DHT22;10942;47.894;11.424;2023-12-07T07:42:38;-0.20;99.90
21563;DHT22;10942;47.894;11.424;2023-12-07T07:45:09;-0.10;99.90
21563;DHT22;10942;47.894;11.424;2023-12-07T07:47:35;-0.10;99.90
21563;DHT22;10942;47.894;11.424;2023-12-07T07:50:00;0.10;99.90
21563;DHT22;10942;47.894;11.424;2023-12-07T07:52:35;0.20;99.90
21563;DHT22;10942;47.894;11.424;2023-12-07T07:55:02;0.30;99.90
21563;DHT22;10942;47.894;11.424;2023-12-07T07:57:29;0.30;99.90
21563;DHT22;10942;47.894;11.424;2023-12-07T07:59:56;0.40;99.90
21563;DHT22;10942;47.894;11.424;2023-12-07T08:02:22;0.50;99.90
21563;DHT22;10942;47.894;11.424;2023-12-07T08:04:48;0.80;99.90
21563;DHT22;10942;47.894;11.424;2023-12-07T08:07:14;1.00;99.90
21563;DHT22;10942;47.894;11.424;2023-12-07T08:09:39;1.10;99.90
21563;DHT22;10942;47.894;11.424;2023-12-07T08:12:05;1.30;99.90
21563;DHT22;10942;47.894;11.424;2023-12-07T08:14:32;1.40;99.90
21563;DHT22;10942;47.894;11.424;2023-12-07T08:16:57;1.50;99.90
21563;DHT22;10942;47.894;11.424;2023-12-07T08:19:23;1.50;99.90
21563;DHT22;10942;47.894;11.424;2023-12-07T08:21:50;1.50;99.90
21563;DHT22;10942;47.894;11.424;2023-12-07T08:24:16;1.70;99.90
21563;DHT22;10942;47.894;11.424;2023-12-07T08:26:42;1.70;99.90
21563;DHT22;10942;47.894;11.424;2023-12-07T08:29:08;1.90;99.90
21563;DHT22;10942;47.894;11.424;2023-12-07T08:31:33;2.00;99.90
21563;DHT22;10942;47.894;11.424;2023-12-07T08:33:59;2.10;99.90
21563;DHT22;10942;47.894;11.424;2023-12-07T08:36:26;2.20;99.90
21563;DHT22;10942;47.894;11.424;2023-12-07T08:38:52;2.30;99.90
21563;DHT22;10942;47.894;11.424;2023-12-07T08:41:18;2.40;99.90
21563;DHT22;10942;47.894;11.424;2023-12-07T08:43:44;2.70;99.90
21563;DHT22;10942;47.894;11.424;2023-12-07T08:46:09;2.80;99.90
21563;DHT22;10942;47.894;11.424;2023-12-07T08:48:38;2.90;99.90
21563;DHT22;10942;47.894;11.424;2023-12-07T08:51:04;3.00;99.90
21563;DHT22;10942;47.894;11.424;2023-12-07T08:53:30;2.90;99.90
21563;DHT22;10942;47.894;11.424;2023-12-07T08:55:56;3.00;99.90
21563;DHT22;10942;47.894;11.424;2023-12-07T08:58:22;3.10;99.90
21563;DHT22;10942;47.894;11.424;2023-12-07T09:00:48;3.30;99.90
21563;DHT22;10942;47.894;11.424;2023-12-07T09:03:14;3.50;99.90
21563;DHT22;10942;47.894;11.424;2023-12-07T09:05:40;3.60;99.90
21563;DHT22;10942;47.894;11.424;2023-12-07T09:08:05;3.80;99.90
21563;DHT22;10942;47.894;11.424;2023-12-07T09:10:32;3.80;99.90
21563;DHT22;10942;47.894;11.424;2023-12-07T09:12:57;3.90;99.90
21563;DHT22;10942;47.894;11.424;2023-12-07T09:15:23;4.00;99.90
21563;DHT22;10942;47.894;11.424;2023-12-07T09:17:49;4.20;99.90
21563;DHT22;10942;47.894;11.424;2023-12-07T09:20:15;4.40;99.90
21563;DHT22;10942;47.894;11.424;2023-12-07T09:22:44;4.80;99.90
21563;DHT22;10942;47.894;11.424;2023-12-07T09:25:11;4.80;99.90
21563;DHT22;10942;47.894;11.424;2023-12-07T09:27:38;4.90;99.90
21563;DHT22;10942;47.894;11.424;2023-12-07T09:30:08;5.20;99.90
21563;DHT22;10942;47.894;11.424;2023-12-07T09:32:41;5.30;99.90
21563;DHT22;10942;47.894;11.424;2023-12-07T09:35:09;5.60;99.90
21563;DHT22;10942;47.894;11.424;2023-12-07T09:37:45;5.40;99.90
21563;DHT22;10942;47.894;11.424;2023-12-07T09:40:21;5.70;99.90
21563;DHT22;10942;47.894;11.424;2023-12-07T09:42:47;5.70;99.90
21563;DHT22;10942;47.894;11.424;2023-12-07T09:45:16;5.80;99.90
21563;DHT22;10942;47.894;11.424;2023-12-07T09:47:50;6.00;99.90
21563;DHT22;10942;47.894;11.424;2023-12-07T09:50:17;6.20;99.90
21563;DHT22;10942;47.894;11.424;2023-12-07T09:52:43;6.40;99.90
21563;DHT22;10942;47.894;11.424;2023-12-07T09:55:09;6.60;99.90
21563;DHT22;10942;47.894;11.424;2023-12-07T09:57:40;6.90;99.90
21563;DHT22;10942;47.894;11.424;2023-12-07T10:02:38;7.70;99.90
21563;DHT22;10942;47.894;11.424;2023-12-07T10:05:05;7.80;99.90
21563;DHT22;10942;47.894;11.424;2023-12-07T10:10:02;7.80;99.90
21563;DHT22;10942;47.894;11.424;2023-12-07T10:12:29;8.00;99.90
21563;DHT22;10942;47.894;11.424;2023-12-07T10:14:55;8.20;99.90
21563;DHT22;10942;47.894;11.424;2023-12-07T10:17:21;8.60;99.90
21563;DHT22;10942;47.894;11.424;2023-12-07T10:19:47;8.90;99.90
21563;DHT22;10942;47.894;11.424;2023-12-07T10:27:26;9.20;99.90
21563;DHT22;10942;47.894;11.424;2023-12-07T10:29:53;9.90;99.90
21563;DHT22;10942;47.894;11.424;2023-12-07T10:32:21;10.20;99.90
21563;DHT22;10942;47.894;11.424;2023-12-07T10:34:47;10.40;99.90
21563;DHT22;10942;47.894;11.424;2023-12-07T10:37:12;10.40;99.90
21563;DHT22;10942;47.894;11.424;2023-12-07T10:39:38;10.20;99.90
21563;DHT22;10942;47.894;11.424;2023-12-07T10:42:09;10.30;99.90
21563;DHT22;10942;47.894;11.424;2023-12-07T10:44:36;10.60;99.90
21563;DHT22;10942;47.894;11.424;2023-12-07T10:47:08;10.90;99.90
21563;DHT22;10942;47.894;11.424;2023-12-07T10:49:36;11.00;99.90
21563;DHT22;10942;47.894;11.424;2023-12-07T10:52:07;11.00;99.90
21563;DHT22;10942;47.894;11.424;2023-12-07T10:55:02;11.20;99.90
21563;DHT22;10942;47.894;11.424;2023-12-07T10:57:33;10.80;99.90
21563;DHT22;10942;47.894;11.424;2023-12-07T11:00:00;10.80;99.90
21563;DHT22;10942;47.894;11.424;2023-12-07T11:02:29;10.50;99.90
21563;DHT22;10942;47.894;11.424;2023-12-07T11:04:58;10.30;99.90
21563;DHT22;10942;47.894;11.424;2023-12-07T11:07:27;9.90;99.90
21563;DHT22;10942;47.894;11.424;2023-12-07T11:10:12;9.40;99.90
21563;DHT22;10942;47.894;11.424;2023-12-07T11:12:47;8.70;99.90
21563;DHT22;10942;47.894;11.424;2023-12-07T11:15:15;8.30;99.90
21563;DHT22;10942;47.894;11.424;2023-12-07T11:17:50;7.80;99.90
21563;DHT22;10942;47.894;11.424;2023-12-07T11:28:03;6.60;99.90
21563;DHT22;10942;47.894;11.424;2023-12-07T11:30:34;6.00;99.90
21563;DHT22;10942;47.894;11.424;2023-12-07T11:33:04;5.80;99.90
21563;DHT22;10942;47.894;11.424;2023-12-07T11:35:30;5.40;99.90
21563;DHT22;10942;47.894;11.424;2023-12-07T11:40:30;5.00;99.90
